sensor_id;sensor_type;location;lat;lon;timestamp;P1;durP1;ratioP1;P2;durP2;ratioP2
36449;SDS011;22475;51.390;7.180;2024-02-16T00:00:08;7.28;;;0.77;;
36449;SDS011;22475;51.390;7.180;2024-02-16T00:02:36;3.30;;;0.60;;
36449;SDS011;22475;51.390;7.180;2024-02-16T00:05:04;1.92;;;0.77;;
36449;SDS011;22475;51.390;7.180;2024-02-16T00:07:32;1.20;;;0.63;;
36449;SDS011;22475;51.390;7.180;2024-02-16T00:09:59;1.13;;;0.73;;
36449;SDS011;22475;51.390;7.180;2024-02-16T00:12:26;0.68;;;0.63;;
36449;SDS011;22475;51.390;7.180;2024-02-16T00:14:52;1.75;;;0.85;;
36449;SDS011;22475;51.390;7.180;2024-02-16T00:17:19;0.73;;;0.47;;
36449;SDS011;22475;51.390;7.180;2024-02-16T00:19:47;0.52;;;0.50;;
36449;SDS011;22475;51.390;7.180;2024-02-16T00:22:15;2.00;;;0.63;;
36449;SDS011;22475;51.390;7.180;2024-02-16T00:24:42;1.65;;;0.95;;
36449;SDS011;22475;51.390;7.180;2024-02-16T00:27:08;0.38;;;0.30;;
36449;SDS011;22475;51.390;7.180;2024-02-16T00:29:35;0.70;;;0.55;;
36449;SDS011;22475;51.390;7.180;2024-02-16T00:32:03;2.55;;;0.52;;
36449;SDS011;22475;51.390;7.180;2024-02-16T00:34:31;3.95;;;1.10;;
36449;SDS011;22475;51.390;7.180;2024-02-16T00:36:57;1.42;;;0.50;;
36449;SDS011;22475;51.390;7.180;2024-02-16T00:39:26;3.10;;;1.02;;
36449;SDS011;22475;51.390;7.180;2024-02-16T00:41:53;4.68;;;0.80;;
36449;SDS011;22475;51.390;7.180;2024-02-16T00:44:20;1.15;;;0.63;;
36449;SDS011;22475;51.390;7.180;2024-02-16T00:46:47;2.30;;;0.90;;
36449;SDS011;22475;51.390;7.180;2024-02-16T00:49:14;0.20;;;0.20;;
36449;SDS011;22475;51.390;7.180;2024-02-16T00:51:40;2.92;;;2.22;;
36449;SDS011;22475;51.390;7.180;2024-02-16T00:54:07;8.13;;;0.93;;
36449;SDS011;22475;51.390;7.180;2024-02-16T00:56:35;1.20;;;0.32;;
36449;SDS011;22475;51.390;7.180;2024-02-16T00:59:02;1.13;;;0.40;;
36449;SDS011;22475;51.390;7.180;2024-02-16T01:01:28;0.65;;;0.65;;
36449;SDS011;22475;51.390;7.180;2024-02-16T01:03:55;1.17;;;0.60;;
36449;SDS011;22475;51.390;7.180;2024-02-16T01:06:22;1.67;;;0.75;;
36449;SDS011;22475;51.390;7.180;2024-02-16T01:08:49;2.05;;;0.70;;
36449;SDS011;22475;51.390;7.180;2024-02-16T01:11:15;0.10;;;0.10;;
36449;SDS011;22475;51.390;7.180;2024-02-16T01:13:45;1.67;;;0.47;;
36449;SDS011;22475;51.390;7.180;2024-02-16T01:16:12;2.63;;;0.80;;
36449;SDS011;22475;51.390;7.180;2024-02-16T01:18:39;6.25;;;0.80;;
36449;SDS011;22475;51.390;7.180;2024-02-16T01:21:06;0.32;;;0.30;;
36449;SDS011;22475;51.390;7.180;2024-02-16T01:23:34;1.73;;;0.57;;
36449;SDS011;22475;51.390;7.180;2024-02-16T01:26:00;0.90;;;0.68;;
36449;SDS011;22475;51.390;7.180;2024-02-16T01:28:27;1.55;;;0.52;;
36449;SDS011;22475;51.390;7.180;2024-02-16T01:30:55;2.80;;;0.80;;
36449;SDS011;22475;51.390;7.180;2024-02-16T01:33:22;2.25;;;1.17;;
36449;SDS011;22475;51.390;7.180;2024-02-16T01:35:49;1.65;;;0.57;;
36449;SDS011;22475;51.390;7.180;2024-02-16T01:38:16;1.98;;;0.95;;
36449;SDS011;22475;51.390;7.180;2024-02-16T01:40:42;1.02;;;0.90;;
36449;SDS011;22475;51.390;7.180;2024-02-16T01:43:09;4.60;;;0.90;;
36449;SDS011;22475;51.390;7.180;2024-02-16T01:45:36;0.52;;;0.32;;
36449;SDS011;22475;51.390;7.180;2024-02-16T01:48:05;2.05;;;1.20;;
36449;SDS011;22475;51.390;7.180;2024-02-16T01:50:32;4.68;;;1.15;;
36449;SDS011;22475;51.390;7.180;2024-02-16T01:52:58;1.75;;;0.80;;
36449;SDS011;22475;51.390;7.180;2024-02-16T01:55:25;0.50;;;0.50;;
36449;SDS011;22475;51.390;7.180;2024-02-16T01:57:52;2.00;;;1.00;;
36449;SDS011;22475;51.390;7.180;2024-02-16T02:00:20;2.53;;;0.75;;
36449;SDS011;22475;51.390;7.180;2024-02-16T02:02:47;1.95;;;1.17;;
36449;SDS011;22475;51.390;7.180;2024-02-16T02:05:16;2.15;;;0.70;;
36449;SDS011;22475;51.390;7.180;2024-02-16T02:07:43;0.60;;;0.60;;
36449;SDS011;22475;51.390;7.180;2024-02-16T02:10:10;1.23;;;0.90;;
36449;SDS011;22475;51.390;7.180;2024-02-16T02:12:38;0.77;;;0.77;;
36449;SDS011;22475;51.390;7.180;2024-02-16T02:15:05;0.85;;;0.85;;
36449;SDS011;22475;51.390;7.180;2024-02-16T02:17:33;0.40;;;0.30;;
36449;SDS011;22475;51.390;7.180;2024-02-16T02:20:00;1.13;;;0.30;;
36449;SDS011;22475;51.390;7.180;2024-02-16T02:22:30;1.27;;;0.50;;
36449;SDS011;22475;51.390;7.180;2024-02-16T02:24:56;2.70;;;0.75;;
36449;SDS011;22475;51.390;7.180;2024-02-16T02:27:23;3.35;;;1.55;;
36449;SDS011;22475;51.390;7.180;2024-02-16T02:29:50;3.85;;;0.52;;
36449;SDS011;22475;51.390;7.180;2024-02-16T02:32:17;1.10;;;1.00;;
36449;SDS011;22475;51.390;7.180;2024-02-16T02:34:44;1.65;;;0.75;;
36449;SDS011;22475;51.390;7.180;2024-02-16T02:37:11;0.75;;;0.75;;
36449;SDS011;22475;51.390;7.180;2024-02-16T02:39:39;4.60;;;0.80;;
36449;SDS011;22475;51.390;7.180;2024-02-16T02:42:06;0.50;;;0.45;;
36449;SDS011;22475;51.390;7.180;2024-02-16T02:44:33;0.45;;;0.43;;
36449;SDS011;22475;51.390;7.180;2024-02-16T02:47:00;1.83;;;1.38;;
36449;SDS011;22475;51.390;7.180;2024-02-16T02:49:27;1.67;;;0.77;;
36449;SDS011;22475;51.390;7.180;2024-02-16T02:51:53;2.28;;;0.68;;
36449;SDS011;22475;51.390;7.180;2024-02-16T02:54:20;2.30;;;1.10;;
36449;SDS011;22475;51.390;7.180;2024-02-16T02:56:48;3.80;;;0.60;;
36449;SDS011;22475;51.390;7.180;2024-02-16T02:59:15;2.85;;;1.15;;
36449;SDS011;22475;51.390;7.180;2024-02-16T03:01:42;3.70;;;0.60;;
36449;SDS011;22475;51.390;7.180;2024-02-16T03:04:08;1.55;;;0.85;;
36449;SDS011;22475;51.390;7.180;2024-02-16T03:06:35;0.80;;;0.80;;
36449;SDS011;22475;51.390;7.180;2024-02-16T03:09:02;3.90;;;1.10;;
36449;SDS011;22475;51.390;7.180;2024-02-16T03:11:29;0.30;;;0.30;;
36449;SDS011;22475;51.390;7.180;2024-02-16T03:13:57;1.75;;;0.90;;
36449;SDS011;22475;51.390;7.180;2024-02-16T03:16:23;1.02;;;0.70;;
36449;SDS011;22475;51.390;7.180;2024-02-16T03:18:50;1.55;;;0.80;;
36449;SDS011;22475;51.390;7.180;2024-02-16T03:21:17;2.08;;;0.90;;
36449;SDS011;22475;51.390;7.180;2024-02-16T03:23:44;1.83;;;0.70;;
36449;SDS011;22475;51.390;7.180;2024-02-16T03:26:14;1.40;;;0.52;;
36449;SDS011;22475;51.390;7.180;2024-02-16T03:31:15;2.03;;;0.63;;
36449;SDS011;22475;51.390;7.180;2024-02-16T03:33:43;1.98;;;1.10;;
36449;SDS011;22475;51.390;7.180;2024-02-16T03:36:09;0.35;;;0.35;;
36449;SDS011;22475;51.390;7.180;2024-02-16T03:38:37;1.10;;;0.80;;
36449;SDS011;22475;51.390;7.180;2024-02-16T03:41:04;1.00;;;0.70;;
36449;SDS011;22475;51.390;7.180;2024-02-16T03:43:31;3.08;;;0.73;;
36449;SDS011;22475;51.390;7.180;2024-02-16T03:45:58;1.45;;;0.63;;
36449;SDS011;22475;51.390;7.180;2024-02-16T03:48:26;1.13;;;0.32;;
36449;SDS011;22475;51.390;7.180;2024-02-16T03:50:52;3.55;;;0.63;;
36449;SDS011;22475;51.390;7.180;2024-02-16T03:53:19;5.22;;;1.13;;
36449;SDS011;22475;51.390;7.180;2024-02-16T03:55:46;1.48;;;0.40;;
36449;SDS011;22475;51.390;7.180;2024-02-16T03:58:13;0.68;;;0.28;;
36449;SDS011;22475;51.390;7.180;2024-02-16T04:00:39;0.55;;;0.40;;
36449;SDS011;22475;51.390;7.180;2024-02-16T04:03:06;5.35;;;1.00;;
36449;SDS011;22475;51.390;7.180;2024-02-16T04:05:35;1.63;;;0.90;;
36449;SDS011;22475;51.390;7.180;2024-02-16T04:08:05;0.60;;;0.25;;
36449;SDS011;22475;51.390;7.180;2024-02-16T04:10:32;1.10;;;0.65;;
36449;SDS011;22475;51.390;7.180;2024-02-16T04:12:59;1.80;;;1.25;;
36449;SDS011;22475;51.390;7.180;2024-02-16T04:15:26;1.20;;;0.50;;
36449;SDS011;22475;51.390;7.180;2024-02-16T04:17:52;3.35;;;1.08;;
36449;SDS011;22475;51.390;7.180;2024-02-16T04:20:19;2.13;;;1.00;;
36449;SDS011;22475;51.390;7.180;2024-02-16T04:22:48;0.20;;;0.20;;
36449;SDS011;22475;51.390;7.180;2024-02-16T04:25:14;3.10;;;1.00;;
36449;SDS011;22475;51.390;7.180;2024-02-16T04:27:41;1.08;;;0.82;;
36449;SDS011;22475;51.390;7.180;2024-02-16T04:30:08;1.50;;;0.80;;
36449;SDS011;22475;51.390;7.180;2024-02-16T04:32:35;0.60;;;0.60;;
36449;SDS011;22475;51.390;7.180;2024-02-16T04:35:02;1.60;;;0.50;;
36449;SDS011;22475;51.390;7.180;2024-02-16T04:37:29;0.90;;;0.40;;
36449;SDS011;22475;51.390;7.180;2024-02-16T04:39:58;0.98;;;0.70;;
36449;SDS011;22475;51.390;7.180;2024-02-16T04:42:24;2.17;;;1.23;;
36449;SDS011;22475;51.390;7.180;2024-02-16T04:44:51;6.35;;;1.15;;
36449;SDS011;22475;51.390;7.180;2024-02-16T04:47:19;7.63;;;1.20;;
36449;SDS011;22475;51.390;7.180;2024-02-16T04:49:45;1.00;;;0.57;;
36449;SDS011;22475;51.390;7.180;2024-02-16T04:52:12;4.05;;;1.30;;
36449;SDS011;22475;51.390;7.180;2024-02-16T04:54:39;3.05;;;0.77;;
36449;SDS011;22475;51.390;7.180;2024-02-16T04:57:07;1.02;;;0.90;;
36449;SDS011;22475;51.390;7.180;2024-02-16T04:59:34;0.88;;;0.70;;
36449;SDS011;22475;51.390;7.180;2024-02-16T05:02:00;2.45;;;0.38;;
36449;SDS011;22475;51.390;7.180;2024-02-16T05:04:28;1.48;;;0.52;;
36449;SDS011;22475;51.390;7.180;2024-02-16T05:06:55;6.55;;;1.58;;
36449;SDS011;22475;51.390;7.180;2024-02-16T05:09:22;4.10;;;0.93;;
36449;SDS011;22475;51.390;7.180;2024-02-16T05:11:51;0.88;;;0.82;;
36449;SDS011;22475;51.390;7.180;2024-02-16T05:14:19;1.80;;;0.57;;
36449;SDS011;22475;51.390;7.180;2024-02-16T05:16:46;1.58;;;0.70;;
36449;SDS011;22475;51.390;7.180;2024-02-16T05:19:13;6.57;;;1.35;;
36449;SDS011;22475;51.390;7.180;2024-02-16T05:21:40;0.70;;;0.70;;
36449;SDS011;22475;51.390;7.180;2024-02-16T05:24:06;2.70;;;0.88;;
36449;SDS011;22475;51.390;7.180;2024-02-16T05:26:33;0.43;;;0.30;;
36449;SDS011;22475;51.390;7.180;2024-02-16T05:29:00;1.15;;;0.70;;
36449;SDS011;22475;51.390;7.180;2024-02-16T05:31:28;1.00;;;0.85;;
36449;SDS011;22475;51.390;7.180;2024-02-16T05:33:56;2.22;;;1.00;;
36449;SDS011;22475;51.390;7.180;2024-02-16T05:36:23;0.88;;;0.82;;
36449;SDS011;22475;51.390;7.180;2024-02-16T05:38:55;4.40;;;1.27;;
36449;SDS011;22475;51.390;7.180;2024-02-16T05:41:24;6.35;;;0.95;;
36449;SDS011;22475;51.390;7.180;2024-02-16T05:43:51;1.55;;;0.28;;
36449;SDS011;22475;51.390;7.180;2024-02-16T05:46:18;2.10;;;1.00;;
36449;SDS011;22475;51.390;7.180;2024-02-16T05:48:46;2.83;;;0.60;;
36449;SDS011;22475;51.390;7.180;2024-02-16T05:51:13;0.52;;;0.52;;
36449;SDS011;22475;51.390;7.180;2024-02-16T05:53:40;1.60;;;0.80;;
36449;SDS011;22475;51.390;7.180;2024-02-16T05:56:06;0.80;;;0.38;;
36449;SDS011;22475;51.390;7.180;2024-02-16T05:58:35;2.47;;;1.10;;
36449;SDS011;22475;51.390;7.180;2024-02-16T06:01:01;2.90;;;0.77;;
36449;SDS011;22475;51.390;7.180;2024-02-16T06:03:28;6.13;;;1.27;;
36449;SDS011;22475;51.390;7.180;2024-02-16T06:05:56;1.90;;;1.08;;
36449;SDS011;22475;51.390;7.180;2024-02-16T06:08:24;1.05;;;0.88;;
36449;SDS011;22475;51.390;7.180;2024-02-16T06:10:50;4.22;;;1.00;;
36449;SDS011;22475;51.390;7.180;2024-02-16T06:13:19;3.00;;;1.38;;
36449;SDS011;22475;51.390;7.180;2024-02-16T06:15:47;6.80;;;1.70;;
36449;SDS011;22475;51.390;7.180;2024-02-16T06:18:14;3.08;;;0.98;;
36449;SDS011;22475;51.390;7.180;2024-02-16T06:20:40;1.85;;;0.70;;
36449;SDS011;22475;51.390;7.180;2024-02-16T06:23:08;1.63;;;1.05;;
36449;SDS011;22475;51.390;7.180;2024-02-16T06:25:35;4.40;;;0.90;;
36449;SDS011;22475;51.390;7.180;2024-02-16T06:28:02;5.40;;;1.30;;
36449;SDS011;22475;51.390;7.180;2024-02-16T06:30:29;3.00;;;1.50;;
36449;SDS011;22475;51.390;7.180;2024-02-16T06:32:56;5.53;;;1.05;;
36449;SDS011;22475;51.390;7.180;2024-02-16T06:35:23;1.08;;;0.95;;
36449;SDS011;22475;51.390;7.180;2024-02-16T06:37:50;2.05;;;0.88;;
36449;SDS011;22475;51.390;7.180;2024-02-16T06:40:18;3.47;;;1.45;;
36449;SDS011;22475;51.390;7.180;2024-02-16T06:42:46;1.63;;;1.38;;
36449;SDS011;22475;51.390;7.180;2024-02-16T06:45:12;2.83;;;1.50;;
36449;SDS011;22475;51.390;7.180;2024-02-16T06:47:39;5.03;;;1.30;;
36449;SDS011;22475;51.390;7.180;2024-02-16T06:50:06;1.95;;;1.10;;
36449;SDS011;22475;51.390;7.180;2024-02-16T06:52:33;2.72;;;1.00;;
36449;SDS011;22475;51.390;7.180;2024-02-16T06:55:00;0.73;;;0.73;;
36449;SDS011;22475;51.390;7.180;2024-02-16T06:57:28;3.22;;;1.02;;
36449;SDS011;22475;51.390;7.180;2024-02-16T06:59:56;2.53;;;0.90;;
36449;SDS011;22475;51.390;7.180;2024-02-16T07:02:23;3.40;;;1.10;;
36449;SDS011;22475;51.390;7.180;2024-02-16T07:04:50;1.30;;;1.20;;
36449;SDS011;22475;51.390;7.180;2024-02-16T07:07:17;2.05;;;1.40;;
36449;SDS011;22475;51.390;7.180;2024-02-16T07:09:44;4.35;;;1.60;;
36449;SDS011;22475;51.390;7.180;2024-02-16T07:12:11;2.53;;;1.02;;
36449;SDS011;22475;51.390;7.180;2024-02-16T07:14:39;5.07;;;1.83;;
36449;SDS011;22475;51.390;7.180;2024-02-16T07:17:06;2.40;;;1.05;;
36449;SDS011;22475;51.390;7.180;2024-02-16T07:19:34;1.60;;;1.38;;
36449;SDS011;22475;51.390;7.180;2024-02-16T07:22:01;6.25;;;1.38;;
36449;SDS011;22475;51.390;7.180;2024-02-16T07:24:28;4.65;;;1.48;;
36449;SDS011;22475;51.390;7.180;2024-02-16T07:26:55;6.90;;;1.80;;
36449;SDS011;22475;51.390;7.180;2024-02-16T07:29:21;2.53;;;0.70;;
36449;SDS011;22475;51.390;7.180;2024-02-16T07:31:49;3.67;;;0.93;;
36449;SDS011;22475;51.390;7.180;2024-02-16T07:34:17;1.42;;;1.02;;
36449;SDS011;22475;51.390;7.180;2024-02-16T07:36:44;5.93;;;1.48;;
36449;SDS011;22475;51.390;7.180;2024-02-16T07:39:11;8.95;;;1.17;;
36449;SDS011;22475;51.390;7.180;2024-02-16T07:41:38;9.07;;;1.27;;
36449;SDS011;22475;51.390;7.180;2024-02-16T07:44:05;4.93;;;1.65;;
36449;SDS011;22475;51.390;7.180;2024-02-16T07:46:31;1.98;;;1.17;;
36449;SDS011;22475;51.390;7.180;2024-02-16T07:48:59;1.83;;;0.93;;
36449;SDS011;22475;51.390;7.180;2024-02-16T07:51:26;10.15;;;1.27;;
36449;SDS011;22475;51.390;7.180;2024-02-16T07:53:53;1.65;;;0.80;;
36449;SDS011;22475;51.390;7.180;2024-02-16T07:56:20;2.15;;;1.42;;
36449;SDS011;22475;51.390;7.180;2024-02-16T07:58:46;2.63;;;1.13;;
36449;SDS011;22475;51.390;7.180;2024-02-16T08:01:13;2.55;;;0.88;;
36449;SDS011;22475;51.390;7.180;2024-02-16T08:03:41;1.83;;;1.60;;
36449;SDS011;22475;51.390;7.180;2024-02-16T08:06:09;2.75;;;0.82;;
36449;SDS011;22475;51.390;7.180;2024-02-16T08:08:35;3.38;;;1.10;;
36449;SDS011;22475;51.390;7.180;2024-02-16T08:11:02;1.13;;;1.02;;
36449;SDS011;22475;51.390;7.180;2024-02-16T08:13:30;4.45;;;1.35;;
36449;SDS011;22475;51.390;7.180;2024-02-16T08:15:56;1.20;;;1.10;;
36449;SDS011;22475;51.390;7.180;2024-02-16T08:18:23;2.72;;;0.95;;
36449;SDS011;22475;51.390;7.180;2024-02-16T08:20:50;2.85;;;1.10;;
36449;SDS011;22475;51.390;7.180;2024-02-16T08:23:18;1.45;;;0.80;;
36449;SDS011;22475;51.390;7.180;2024-02-16T08:25:45;4.15;;;1.20;;
36449;SDS011;22475;51.390;7.180;2024-02-16T08:28:12;3.90;;;1.23;;
36449;SDS011;22475;51.390;7.180;2024-02-16T08:30:39;1.23;;;0.35;;
36449;SDS011;22475;51.390;7.180;2024-02-16T08:33:06;3.38;;;1.08;;
36449;SDS011;22475;51.390;7.180;2024-02-16T08:35:33;5.95;;;1.10;;
36449;SDS011;22475;51.390;7.180;2024-02-16T08:38:00;6.45;;;1.30;;
36449;SDS011;22475;51.390;7.180;2024-02-16T08:40:28;3.17;;;1.05;;
36449;SDS011;22475;51.390;7.180;2024-02-16T08:42:55;1.25;;;1.15;;
36449;SDS011;22475;51.390;7.180;2024-02-16T08:45:22;4.65;;;1.35;;
36449;SDS011;22475;51.390;7.180;2024-02-16T08:47:49;7.88;;;1.83;;
36449;SDS011;22475;51.390;7.180;2024-02-16T08:50:16;2.10;;;1.40;;
36449;SDS011;22475;51.390;7.180;2024-02-16T08:52:42;1.60;;;0.85;;
36449;SDS011;22475;51.390;7.180;2024-02-16T08:55:10;8.52;;;1.48;;
36449;SDS011;22475;51.390;7.180;2024-02-16T08:57:39;7.65;;;1.90;;
36449;SDS011;22475;51.390;7.180;2024-02-16T09:00:06;2.67;;;1.45;;
36449;SDS011;22475;51.390;7.180;2024-02-16T09:02:34;3.65;;;1.50;;
36449;SDS011;22475;51.390;7.180;2024-02-16T09:05:01;1.55;;;1.30;;
36449;SDS011;22475;51.390;7.180;2024-02-16T09:07:28;1.75;;;1.58;;
36449;SDS011;22475;51.390;7.180;2024-02-16T09:09:55;5.45;;;1.33;;
36449;SDS011;22475;51.390;7.180;2024-02-16T09:12:21;14.73;;;1.77;;
36449;SDS011;22475;51.390;7.180;2024-02-16T09:14:50;1.75;;;1.27;;
36449;SDS011;22475;51.390;7.180;2024-02-16T09:17:16;9.98;;;1.23;;
36449;SDS011;22475;51.390;7.180;2024-02-16T09:19:44;4.05;;;1.48;;
36449;SDS011;22475;51.390;7.180;2024-02-16T09:22:11;7.30;;;2.17;;
36449;SDS011;22475;51.390;7.180;2024-02-16T09:24:38;8.00;;;1.45;;
36449;SDS011;22475;51.390;7.180;2024-02-16T09:27:05;12.57;;;2.22;;
36449;SDS011;22475;51.390;7.180;2024-02-16T09:29:35;9.68;;;1.48;;
36449;SDS011;22475;51.390;7.180;2024-02-16T09:32:03;6.20;;;1.77;;
36449;SDS011;22475;51.390;7.180;2024-02-16T09:34:30;4.53;;;0.90;;
36449;SDS011;22475;51.390;7.180;2024-02-16T09:36:57;15.68;;;3.67;;
36449;SDS011;22475;51.390;7.180;2024-02-16T09:39:24;55.17;;;9.40;;
36449;SDS011;22475;51.390;7.180;2024-02-16T09:41:53;20.08;;;7.68;;
36449;SDS011;22475;51.390;7.180;2024-02-16T09:44:20;12.38;;;3.83;;
36449;SDS011;22475;51.390;7.180;2024-02-16T09:46:48;22.08;;;4.85;;
36449;SDS011;22475;51.390;7.180;2024-02-16T09:49:16;14.15;;;4.57;;
36449;SDS011;22475;51.390;7.180;2024-02-16T09:51:43;17.08;;;3.80;;
36449;SDS011;22475;51.390;7.180;2024-02-16T09:54:10;30.45;;;7.05;;
36449;SDS011;22475;51.390;7.180;2024-02-16T09:56:37;16.02;;;2.75;;
36449;SDS011;22475;51.390;7.180;2024-02-16T09:59:04;8.57;;;3.22;;
36449;SDS011;22475;51.390;7.180;2024-02-16T10:01:32;19.30;;;4.75;;
36449;SDS011;22475;51.390;7.180;2024-02-16T10:03:59;3.58;;;1.92;;
36449;SDS011;22475;51.390;7.180;2024-02-16T10:06:33;19.30;;;4.13;;
36449;SDS011;22475;51.390;7.180;2024-02-16T10:09:11;4.90;;;3.17;;
36449;SDS011;22475;51.390;7.180;2024-02-16T10:11:49;5.57;;;2.67;;
36449;SDS011;22475;51.390;7.180;2024-02-16T10:14:15;7.18;;;3.08;;
36449;SDS011;22475;51.390;7.180;2024-02-16T10:16:44;15.48;;;4.10;;
36449;SDS011;22475;51.390;7.180;2024-02-16T10:19:11;22.85;;;4.72;;
36449;SDS011;22475;51.390;7.180;2024-02-16T10:21:39;10.20;;;2.92;;
36449;SDS011;22475;51.390;7.180;2024-02-16T10:24:07;13.48;;;2.67;;
36449;SDS011;22475;51.390;7.180;2024-02-16T10:26:34;8.57;;;2.40;;
36449;SDS011;22475;51.390;7.180;2024-02-16T10:29:03;11.43;;;3.35;;
36449;SDS011;22475;51.390;7.180;2024-02-16T10:31:31;7.70;;;2.08;;
36449;SDS011;22475;51.390;7.180;2024-02-16T10:33:58;4.80;;;1.83;;
36449;SDS011;22475;51.390;7.180;2024-02-16T10:36:30;2.75;;;1.77;;
36449;SDS011;22475;51.390;7.180;2024-02-16T10:38:59;12.85;;;3.83;;
36449;SDS011;22475;51.390;7.180;2024-02-16T10:41:29;3.65;;;1.50;;
36449;SDS011;22475;51.390;7.180;2024-02-16T10:43:59;3.67;;;2.20;;
36449;SDS011;22475;51.390;7.180;2024-02-16T10:46:27;18.33;;;2.60;;
36449;SDS011;22475;51.390;7.180;2024-02-16T10:48:54;3.40;;;2.38;;
36449;SDS011;22475;51.390;7.180;2024-02-16T10:51:21;7.30;;;2.83;;
36449;SDS011;22475;51.390;7.180;2024-02-16T10:53:51;11.20;;;3.30;;
36449;SDS011;22475;51.390;7.180;2024-02-16T10:56:27;3.40;;;2.35;;
36449;SDS011;22475;51.390;7.180;2024-02-16T10:58:59;3.50;;;1.98;;
36449;SDS011;22475;51.390;7.180;2024-02-16T11:01:27;5.05;;;1.85;;
36449;SDS011;22475;51.390;7.180;2024-02-16T11:04:00;4.50;;;1.55;;
36449;SDS011;22475;51.390;7.180;2024-02-16T11:06:28;2.35;;;1.40;;
36449;SDS011;22475;51.390;7.180;2024-02-16T11:08:54;2.50;;;2.15;;
36449;SDS011;22475;51.390;7.180;2024-02-16T11:11:33;4.70;;;2.10;;
36449;SDS011;22475;51.390;7.180;2024-02-16T11:14:01;6.20;;;1.83;;
36449;SDS011;22475;51.390;7.180;2024-02-16T11:16:28;13.00;;;2.20;;
36449;SDS011;22475;51.390;7.180;2024-02-16T11:18:55;4.13;;;1.95;;
36449;SDS011;22475;51.390;7.180;2024-02-16T11:21:22;2.08;;;1.83;;
36449;SDS011;22475;51.390;7.180;2024-02-16T11:23:49;7.18;;;2.65;;
36449;SDS011;22475;51.390;7.180;2024-02-16T11:26:17;6.63;;;2.47;;
36449;SDS011;22475;51.390;7.180;2024-02-16T11:28:45;10.73;;;1.30;;
36449;SDS011;22475;51.390;7.180;2024-02-16T11:31:12;6.82;;;2.15;;
36449;SDS011;22475;51.390;7.180;2024-02-16T11:33:43;4.68;;;2.13;;
36449;SDS011;22475;51.390;7.180;2024-02-16T11:36:10;8.13;;;1.77;;
36449;SDS011;22475;51.390;7.180;2024-02-16T11:38:37;10.55;;;1.88;;
36449;SDS011;22475;51.390;7.180;2024-02-16T11:41:04;7.38;;;2.15;;
36449;SDS011;22475;51.390;7.180;2024-02-16T11:43:34;5.95;;;1.75;;
36449;SDS011;22475;51.390;7.180;2024-02-16T11:46:10;3.55;;;1.75;;
36449;SDS011;22475;51.390;7.180;2024-02-16T11:48:37;7.55;;;2.42;;
36449;SDS011;22475;51.390;7.180;2024-02-16T11:51:04;6.85;;;2.20;;
36449;SDS011;22475;51.390;7.180;2024-02-16T11:53:31;7.13;;;2.67;;
36449;SDS011;22475;51.390;7.180;2024-02-16T11:55:58;3.10;;;2.13;;
36449;SDS011;22475;51.390;7.180;2024-02-16T11:58:25;5.38;;;2.88;;
36449;SDS011;22475;51.390;7.180;2024-02-16T12:00:52;6.57;;;1.95;;
36449;SDS011;22475;51.390;7.180;2024-02-16T12:03:20;12.52;;;2.28;;
36449;SDS011;22475;51.390;7.180;2024-02-16T12:05:51;3.10;;;1.77;;
36449;SDS011;22475;51.390;7.180;2024-02-16T12:08:18;7.57;;;1.85;;
36449;SDS011;22475;51.390;7.180;2024-02-16T12:10:46;6.53;;;2.42;;
36449;SDS011;22475;51.390;7.180;2024-02-16T12:13:14;9.68;;;2.25;;
36449;SDS011;22475;51.390;7.180;2024-02-16T12:15:43;6.78;;;2.53;;
36449;SDS011;22475;51.390;7.180;2024-02-16T12:18:10;5.97;;;1.95;;
36449;SDS011;22475;51.390;7.180;2024-02-16T12:20:46;9.55;;;2.13;;
36449;SDS011;22475;51.390;7.180;2024-02-16T12:23:23;4.10;;;1.88;;
36449;SDS011;22475;51.390;7.180;2024-02-16T12:25:49;6.72;;;2.17;;
36449;SDS011;22475;51.390;7.180;2024-02-16T12:28:16;7.72;;;2.47;;
36449;SDS011;22475;51.390;7.180;2024-02-16T12:30:43;9.63;;;2.45;;
36449;SDS011;22475;51.390;7.180;2024-02-16T12:33:10;2.50;;;1.77;;
36449;SDS011;22475;51.390;7.180;2024-02-16T12:35:36;4.15;;;1.77;;
36449;SDS011;22475;51.390;7.180;2024-02-16T12:38:05;6.47;;;2.13;;
36449;SDS011;22475;51.390;7.180;2024-02-16T12:40:31;5.15;;;2.10;;
36449;SDS011;22475;51.390;7.180;2024-02-16T12:42:58;7.30;;;2.53;;
36449;SDS011;22475;51.390;7.180;2024-02-16T12:45:25;0.45;;;0.40;;
36449;SDS011;22475;51.390;7.180;2024-02-16T12:47:52;3.78;;;2.42;;
36449;SDS011;22475;51.390;7.180;2024-02-16T12:50:18;9.38;;;2.47;;
36449;SDS011;22475;51.390;7.180;2024-02-16T12:52:45;6.63;;;2.17;;
36449;SDS011;22475;51.390;7.180;2024-02-16T12:55:13;11.55;;;2.03;;
36449;SDS011;22475;51.390;7.180;2024-02-16T12:57:41;10.65;;;2.40;;
36449;SDS011;22475;51.390;7.180;2024-02-16T13:00:08;8.63;;;1.90;;
36449;SDS011;22475;51.390;7.180;2024-02-16T13:02:36;5.50;;;2.63;;
36449;SDS011;22475;51.390;7.180;2024-02-16T13:05:03;18.38;;;2.65;;
36449;SDS011;22475;51.390;7.180;2024-02-16T13:07:30;9.70;;;3.33;;
36449;SDS011;22475;51.390;7.180;2024-02-16T13:09:57;8.65;;;2.65;;
36449;SDS011;22475;51.390;7.180;2024-02-16T13:12:25;11.32;;;2.85;;
36449;SDS011;22475;51.390;7.180;2024-02-16T13:14:52;3.55;;;2.10;;
36449;SDS011;22475;51.390;7.180;2024-02-16T13:17:19;8.57;;;2.17;;
36449;SDS011;22475;51.390;7.180;2024-02-16T13:19:46;3.40;;;1.90;;
36449;SDS011;22475;51.390;7.180;2024-02-16T13:22:12;7.93;;;2.38;;
36449;SDS011;22475;51.390;7.180;2024-02-16T13:24:39;8.10;;;2.35;;
36449;SDS011;22475;51.390;7.180;2024-02-16T13:27:06;7.68;;;2.33;;
36449;SDS011;22475;51.390;7.180;2024-02-16T13:29:35;7.45;;;3.35;;
36449;SDS011;22475;51.390;7.180;2024-02-16T13:32:02;4.82;;;2.80;;
36449;SDS011;22475;51.390;7.180;2024-02-16T13:34:29;6.22;;;3.25;;
36449;SDS011;22475;51.390;7.180;2024-02-16T13:36:55;5.00;;;2.25;;
36449;SDS011;22475;51.390;7.180;2024-02-16T13:39:22;13.55;;;3.00;;
36449;SDS011;22475;51.390;7.180;2024-02-16T13:41:52;3.83;;;2.75;;
36449;SDS011;22475;51.390;7.180;2024-02-16T13:44:19;5.90;;;2.40;;
36449;SDS011;22475;51.390;7.180;2024-02-16T13:46:48;16.30;;;3.28;;
36449;SDS011;22475;51.390;7.180;2024-02-16T13:49:15;7.30;;;3.33;;
36449;SDS011;22475;51.390;7.180;2024-02-16T13:51:41;7.80;;;2.35;;
36449;SDS011;22475;51.390;7.180;2024-02-16T13:54:08;1.15;;;0.80;;
36449;SDS011;22475;51.390;7.180;2024-02-16T13:56:35;7.40;;;3.33;;
36449;SDS011;22475;51.390;7.180;2024-02-16T13:59:03;4.43;;;3.53;;
36449;SDS011;22475;51.390;7.180;2024-02-16T14:01:32;5.70;;;2.85;;
36449;SDS011;22475;51.390;7.180;2024-02-16T14:04:00;5.93;;;2.90;;
36449;SDS011;22475;51.390;7.180;2024-02-16T14:06:28;5.80;;;2.97;;
36449;SDS011;22475;51.390;7.180;2024-02-16T14:08:55;4.97;;;3.08;;
36449;SDS011;22475;51.390;7.180;2024-02-16T14:11:22;4.35;;;2.13;;
36449;SDS011;22475;51.390;7.180;2024-02-16T14:13:49;11.23;;;3.80;;
36449;SDS011;22475;51.390;7.180;2024-02-16T14:16:16;8.50;;;2.97;;
36449;SDS011;22475;51.390;7.180;2024-02-16T14:18:43;6.30;;;3.67;;
36449;SDS011;22475;51.390;7.180;2024-02-16T14:21:11;8.55;;;3.90;;
36449;SDS011;22475;51.390;7.180;2024-02-16T14:23:37;9.13;;;4.13;;
36449;SDS011;22475;51.390;7.180;2024-02-16T14:26:04;8.98;;;3.92;;
36449;SDS011;22475;51.390;7.180;2024-02-16T14:28:31;4.68;;;3.90;;
36449;SDS011;22475;51.390;7.180;2024-02-16T14:30:57;12.50;;;5.72;;
36449;SDS011;22475;51.390;7.180;2024-02-16T14:33:24;5.22;;;3.33;;
36449;SDS011;22475;51.390;7.180;2024-02-16T14:35:51;4.60;;;3.65;;
36449;SDS011;22475;51.390;7.180;2024-02-16T14:38:19;7.38;;;4.03;;
36449;SDS011;22475;51.390;7.180;2024-02-16T14:40:46;9.20;;;4.90;;
36449;SDS011;22475;51.390;7.180;2024-02-16T14:43:13;9.27;;;4.10;;
36449;SDS011;22475;51.390;7.180;2024-02-16T14:45:40;5.00;;;3.10;;
36449;SDS011;22475;51.390;7.180;2024-02-16T14:48:07;3.42;;;2.88;;